createdAt,value
2017-05-26T00:00:11.967Z,101044
2017-05-26T00:01:12.598Z,101045
2017-05-26T00:02:12.870Z,101040
2017-05-26T00:03:12.677Z,101041
2017-05-26T00:04:12.702Z,101039
2017-05-26T00:05:12.237Z,101039
2017-05-26T00:06:12.841Z,101046
2017-05-26T00:07:12.263Z,101046
2017-05-26T00:08:12.596Z,101042
2017-05-26T00:09:12.344Z,101045
2017-05-26T00:10:12.893Z,101046
2017-05-26T00:11:12.938Z,101046
2017-05-26T00:12:13.010Z,101045
2017-05-26T00:13:12.502Z,101043
2017-05-26T00:14:12.790Z,101044
2017-05-26T00:15:13.157Z,101044
2017-05-26T00:16:13.211Z,101043
2017-05-26T00:17:12.705Z,101040
2017-05-26T00:18:12.715Z,101039
2017-05-26T00:19:13.318Z,101040
2017-05-26T00:20:13.732Z,101037
2017-05-26T00:21:13.012Z,101040
2017-05-26T00:22:13.064Z,101037
2017-05-26T00:23:13.673Z,101034
2017-05-26T00:24:13.170Z,101033
2017-05-26T00:25:13.817Z,101034
2017-05-26T00:26:13.568Z,101029
2017-05-26T00:27:13.412Z,101033
2017-05-26T00:28:13.486Z,101028
2017-05-26T00:29:13.452Z,101027
2017-05-26T00:30:13.468Z,101034
2017-05-26T00:31:13.565Z,101028
2017-05-26T00:32:14.411Z,101031
2017-05-26T00:33:14.194Z,101022
2017-05-26T00:34:13.786Z,101027
2017-05-26T00:35:13.757Z,101021
2017-05-26T00:36:14.327Z,101021
2017-05-26T00:37:13.844Z,101023
2017-05-26T00:38:14.697Z,101019
2017-05-26T00:39:14.001Z,101024
2017-05-26T00:40:14.013Z,101018
2017-05-26T00:41:14.615Z,101018
2017-05-26T00:42:14.125Z,101017
2017-05-26T00:43:14.176Z,101017
2017-05-26T00:44:14.551Z,101023
2017-05-26T00:45:14.233Z,101020
2017-05-26T00:46:14.290Z,101022
2017-05-26T00:47:14.351Z,101018
2017-05-26T00:48:14.461Z,101016
2017-05-26T00:49:14.464Z,101017
2017-05-26T00:50:14.806Z,101014
2017-05-26T00:51:15.139Z,101016
2017-05-26T00:52:15.139Z,101016
2017-05-26T00:53:14.636Z,101018
2017-05-26T00:54:14.657Z,101019
2017-05-26T00:55:15.181Z,101020
2017-05-26T00:56:15.527Z,101017
2017-05-26T00:57:15.317Z,101021
2017-05-26T00:58:14.887Z,101019
2017-05-26T00:59:14.959Z,101019
2017-05-26T01:00:15.511Z,101019
2017-05-26T01:01:15.020Z,101023
2017-05-26T01:02:15.835Z,101019
2017-05-26T01:03:15.618Z,101025
2017-05-26T01:04:15.146Z,101026
2017-05-26T01:05:15.211Z,101027
2017-05-26T01:06:15.265Z,101024
2017-05-26T01:07:15.882Z,101018
2017-05-26T01:08:16.266Z,101020
2017-05-26T01:09:15.915Z,101020
2017-05-26T01:10:15.418Z,101018
2017-05-26T01:11:15.984Z,101014
2017-05-26T01:12:15.535Z,101019
2017-05-26T01:13:16.111Z,101017
2017-05-26T01:14:16.443Z,101017
2017-05-26T01:15:15.675Z,101012
2017-05-26T01:16:15.725Z,101010
2017-05-26T01:17:16.284Z,101018
2017-05-26T01:18:15.733Z,101019
2017-05-26T01:19:16.359Z,101021
2017-05-26T01:20:16.713Z,101017
2017-05-26T01:21:16.356Z,101015
2017-05-26T01:22:15.861Z,101022
2017-05-26T01:23:16.398Z,101024
2017-05-26T01:24:15.873Z,101028
2017-05-26T01:25:16.454Z,101026
2017-05-26T01:26:16.788Z,101030
2017-05-26T01:27:16.059Z,101032
2017-05-26T01:28:16.067Z,101032
2017-05-26T01:29:16.070Z,101028
2017-05-26T01:30:16.138Z,101026
2017-05-26T01:31:16.110Z,101023
2017-05-26T01:32:17.024Z,101028
2017-05-26T01:33:16.192Z,101027
2017-05-26T01:34:16.751Z,101027
2017-05-26T01:35:16.848Z,101032
2017-05-26T01:36:16.380Z,101030
2017-05-26T01:37:16.359Z,101027
2017-05-26T01:38:16.734Z,101031
2017-05-26T01:39:16.980Z,101029
2017-05-26T01:40:16.486Z,101030
2017-05-26T01:41:17.103Z,101032
2017-05-26T01:42:17.168Z,101033
2017-05-26T01:43:17.213Z,101034
2017-05-26T01:44:17.546Z,101031
2017-05-26T01:45:16.829Z,101033
2017-05-26T01:46:17.407Z,101036
2017-05-26T01:47:16.886Z,101040
2017-05-26T01:48:16.912Z,101038
2017-05-26T01:49:17.000Z,101038
2017-05-26T01:50:17.284Z,101040
2017-05-26T01:51:17.090Z,101038
2017-05-26T01:52:17.091Z,101034
2017-05-26T01:53:17.718Z,101034
2017-05-26T01:54:17.258Z,101033
2017-05-26T01:55:17.780Z,101037
2017-05-26T01:56:18.089Z,101042
2017-05-26T01:57:17.318Z,101036
2017-05-26T01:58:17.837Z,101041
2017-05-26T01:59:17.372Z,101042
2017-05-26T02:00:17.376Z,101044
2017-05-26T02:01:17.938Z,101035
2017-05-26T02:02:18.272Z,101042
2017-05-26T02:03:17.546Z,101041
2017-05-26T02:04:18.073Z,101035
2017-05-26T02:05:17.618Z,101043
2017-05-26T02:06:18.131Z,101042
2017-05-26T02:07:18.153Z,101038
2017-05-26T02:08:18.493Z,101041
2017-05-26T02:09:18.222Z,101039
2017-05-26T02:10:18.315Z,101041
2017-05-26T02:11:17.831Z,101042
2017-05-26T02:12:17.911Z,101040
2017-05-26T02:13:17.966Z,101036
2017-05-26T02:14:18.790Z,101038
2017-05-26T02:15:18.044Z,101037
2017-05-26T02:16:18.598Z,101039
2017-05-26T02:17:18.136Z,101039
2017-05-26T02:18:18.225Z,101045
2017-05-26T02:19:18.774Z,101044
2017-05-26T02:20:19.084Z,101045
2017-05-26T02:21:18.339Z,101046
2017-05-26T02:22:18.903Z,101042
2017-05-26T02:23:18.367Z,101043
2017-05-26T02:24:18.406Z,101048
2017-05-26T02:25:18.461Z,101043
2017-05-26T02:26:19.341Z,101045
2017-05-26T02:27:18.605Z,101046
2017-05-26T02:28:18.691Z,101050
2017-05-26T02:29:18.653Z,101044
2017-05-26T02:30:18.786Z,101048
2017-05-26T02:31:19.335Z,101041
2017-05-26T02:32:19.098Z,101046
2017-05-26T02:33:19.438Z,101041
2017-05-26T02:34:19.486Z,101038
2017-05-26T02:35:19.520Z,101044
2017-05-26T02:36:19.082Z,101043
2017-05-26T02:37:19.106Z,101043
2017-05-26T02:38:20.048Z,101046
2017-05-26T02:39:19.825Z,101044
2017-05-26T02:40:19.858Z,101042
2017-05-26T02:41:19.970Z,101039
2017-05-26T02:42:20.015Z,101045
2017-05-26T02:43:19.545Z,101043
2017-05-26T02:44:19.833Z,101043
2017-05-26T02:45:20.129Z,101043
2017-05-26T02:46:19.661Z,101039
2017-05-26T02:47:19.742Z,101038
2017-05-26T02:48:19.771Z,101041
2017-05-26T02:49:20.277Z,101043
2017-05-26T02:50:20.661Z,101042
2017-05-26T02:51:20.473Z,101046
2017-05-26T02:52:19.880Z,101045
2017-05-26T02:53:19.892Z,101039
2017-05-26T02:54:20.003Z,101044
2017-05-26T02:55:20.052Z,101043
2017-05-26T02:56:20.378Z,101043
2017-05-26T02:57:20.164Z,101042
2017-05-26T02:58:20.697Z,101038
2017-05-26T02:59:20.787Z,101039
2017-05-26T03:00:20.776Z,101039
2017-05-26T03:01:20.818Z,101040
2017-05-26T03:02:20.603Z,101040
2017-05-26T03:03:20.867Z,101035
2017-05-26T03:04:20.380Z,101041
2017-05-26T03:05:20.457Z,101044
2017-05-26T03:06:20.536Z,101046
2017-05-26T03:07:21.209Z,101044
2017-05-26T03:08:21.421Z,101044
2017-05-26T03:09:21.214Z,101040
2017-05-26T03:10:20.685Z,101045
2017-05-26T03:11:20.655Z,101042
2017-05-26T03:12:21.256Z,101039
2017-05-26T03:13:20.819Z,101044
2017-05-26T03:14:21.039Z,101038
2017-05-26T03:15:20.803Z,101031
2017-05-26T03:16:20.913Z,101037
2017-05-26T03:17:21.492Z,101041
2017-05-26T03:18:21.021Z,101041
2017-05-26T03:19:21.070Z,101040
2017-05-26T03:20:21.417Z,101034
2017-05-26T03:21:21.650Z,101040
2017-05-26T03:22:21.081Z,101039
2017-05-26T03:23:21.687Z,101039
2017-05-26T03:24:21.676Z,101041
2017-05-26T03:25:21.207Z,101042
2017-05-26T03:26:21.547Z,101037
2017-05-26T03:27:21.295Z,101045
2017-05-26T03:28:21.337Z,101044
2017-05-26T03:29:21.473Z,101043
2017-05-26T03:30:21.521Z,101046
2017-05-26T03:31:21.477Z,101041
2017-05-26T03:32:21.845Z,101042
2017-05-26T03:33:21.708Z,101043
2017-05-26T03:34:21.755Z,101044
2017-05-26T03:35:22.305Z,101044
2017-05-26T03:36:21.854Z,101039
2017-05-26T03:37:22.482Z,101054
2017-05-26T03:38:22.299Z,101056
2017-05-26T03:39:22.600Z,101048
2017-05-26T03:40:22.675Z,101045
2017-05-26T03:41:22.207Z,101046
2017-05-26T03:42:22.308Z,101046
2017-05-26T03:43:22.305Z,101043
2017-05-26T03:44:22.634Z,101041
2017-05-26T03:45:22.422Z,101042
2017-05-26T03:46:22.541Z,101043
2017-05-26T03:47:23.102Z,101042
2017-05-26T03:48:23.146Z,101041
2017-05-26T03:49:23.147Z,101040
2017-05-26T03:50:22.896Z,101043
2017-05-26T03:51:22.769Z,101043
2017-05-26T03:52:22.858Z,101042
2017-05-26T03:53:22.898Z,101046
2017-05-26T03:54:23.464Z,101044
2017-05-26T03:55:22.977Z,101045
2017-05-26T03:56:23.303Z,101042
2017-05-26T03:57:23.693Z,101047
2017-05-26T03:58:23.216Z,101044
2017-05-26T03:59:23.802Z,101049
2017-05-26T04:00:23.343Z,101047
2017-05-26T04:01:23.431Z,101046
2017-05-26T04:02:24.283Z,101054
2017-05-26T04:03:23.567Z,101049
2017-05-26T04:04:23.550Z,101056
2017-05-26T04:05:23.546Z,101050
2017-05-26T04:06:23.679Z,101058
2017-05-26T04:07:24.319Z,101054
2017-05-26T04:08:24.170Z,101057
2017-05-26T04:09:23.944Z,101053
2017-05-26T04:10:24.484Z,101053
2017-05-26T04:11:24.529Z,101055
2017-05-26T04:12:24.527Z,101057
2017-05-26T04:13:24.066Z,101055
2017-05-26T04:14:24.946Z,101054
2017-05-26T04:15:24.192Z,101056
2017-05-26T04:16:24.787Z,101051
2017-05-26T04:17:24.293Z,101055
2017-05-26T04:18:24.897Z,101053
2017-05-26T04:19:24.964Z,101050
2017-05-26T04:20:25.284Z,101054
2017-05-26T04:21:24.482Z,101058
2017-05-26T04:22:25.090Z,101056
2017-05-26T04:23:24.597Z,101057
2017-05-26T04:24:24.659Z,101056
2017-05-26T04:25:24.708Z,101058
2017-05-26T04:26:25.513Z,101058
2017-05-26T04:27:25.342Z,101061
2017-05-26T04:28:24.901Z,101054
2017-05-26T04:29:25.002Z,101053
2017-05-26T04:30:25.004Z,101053
2017-05-26T04:31:25.620Z,101046
2017-05-26T04:32:25.422Z,101048
2017-05-26T04:33:25.739Z,101056
2017-05-26T04:34:25.746Z,101053
2017-05-26T04:35:25.798Z,101048
2017-05-26T04:36:25.328Z,101043
2017-05-26T04:37:25.360Z,101048
2017-05-26T04:38:25.685Z,101044
2017-05-26T04:39:26.039Z,101046
2017-05-26T04:40:26.009Z,101046
2017-05-26T04:41:25.604Z,101050
2017-05-26T04:42:25.638Z,101046
2017-05-26T04:43:26.238Z,101047
2017-05-26T04:44:26.604Z,101047
2017-05-26T04:45:26.306Z,101045
2017-05-26T04:46:26.378Z,101049
2017-05-26T04:47:26.251Z,101049
2017-05-26T04:48:26.289Z,101051
2017-05-26T04:49:26.659Z,101049
2017-05-26T04:50:27.103Z,101053
2017-05-26T04:51:26.184Z,101046
2017-05-26T04:52:26.770Z,101054
2017-05-26T04:53:27.020Z,101056
2017-05-26T04:54:26.351Z,101048
2017-05-26T04:55:26.327Z,101057
2017-05-26T04:56:27.181Z,101051
2017-05-26T04:57:26.775Z,101054
2017-05-26T04:58:27.047Z,101054
2017-05-26T04:59:27.341Z,101052
2017-05-26T05:00:27.267Z,101050
2017-05-26T05:01:27.394Z,101053
2017-05-26T05:02:27.698Z,101050
2017-05-26T05:03:28.043Z,101050
2017-05-26T05:04:27.390Z,101040
2017-05-26T05:05:27.649Z,101048
2017-05-26T05:06:26.967Z,101045
2017-05-26T05:07:27.760Z,101049
2017-05-26T05:08:27.738Z,101049
2017-05-26T05:09:27.085Z,101053
2017-05-26T05:10:27.856Z,101051
2017-05-26T05:11:27.946Z,101049
2017-05-26T05:12:27.810Z,101050
2017-05-26T05:13:27.945Z,101053
2017-05-26T05:14:28.280Z,101055
2017-05-26T05:15:28.036Z,101054
2017-05-26T05:16:27.541Z,101054
2017-05-26T05:17:28.117Z,101056
2017-05-26T05:18:27.534Z,101053
2017-05-26T05:19:28.238Z,101053
2017-05-26T05:20:28.093Z,101058
2017-05-26T05:21:27.835Z,101060
2017-05-26T05:22:28.277Z,101058
2017-05-26T05:23:28.227Z,101063
2017-05-26T05:24:28.296Z,101067
2017-05-26T05:25:27.904Z,101065
2017-05-26T05:26:28.148Z,101066
2017-05-26T05:27:28.364Z,101063
2017-05-26T05:28:28.426Z,101062
2017-05-26T05:29:28.510Z,101068
2017-05-26T05:30:28.032Z,101065
2017-05-26T05:31:28.568Z,101062
2017-05-26T05:32:28.922Z,101065
2017-05-26T05:33:28.714Z,101065
2017-05-26T05:34:28.270Z,101063
2017-05-26T05:35:28.937Z,101069
2017-05-26T05:36:28.415Z,101066
2017-05-26T05:37:29.077Z,101067
2017-05-26T05:38:29.503Z,101071
2017-05-26T05:39:28.693Z,101073
2017-05-26T05:40:29.217Z,101069
2017-05-26T05:41:29.385Z,101078
2017-05-26T05:42:28.764Z,101075
2017-05-26T05:43:29.329Z,101080
2017-05-26T05:44:29.204Z,101080
2017-05-26T05:45:29.452Z,101077
2017-05-26T05:46:29.066Z,101079
2017-05-26T05:47:29.607Z,101077
2017-05-26T05:48:29.162Z,101081
2017-05-26T05:49:29.766Z,101072
2017-05-26T05:50:29.511Z,101073
2017-05-26T05:51:29.759Z,101071
2017-05-26T05:52:30.404Z,101070
2017-05-26T05:53:29.339Z,101071
2017-05-26T05:54:29.424Z,101069
2017-05-26T05:55:29.569Z,101072
2017-05-26T05:56:30.421Z,101072
2017-05-26T05:57:30.209Z,101072
2017-05-26T05:58:30.298Z,101071
2017-05-26T05:59:30.315Z,101073
2017-05-26T06:00:30.426Z,101070
2017-05-26T06:01:30.479Z,101071
2017-05-26T06:02:30.761Z,101076
2017-05-26T06:03:30.069Z,101074
2017-05-26T06:04:30.625Z,101072
2017-05-26T06:05:30.132Z,101073
2017-05-26T06:06:30.706Z,101073
2017-05-26T06:07:30.257Z,101075
2017-05-26T06:08:30.607Z,101074
2017-05-26T06:09:30.893Z,101078
2017-05-26T06:10:30.455Z,101077
2017-05-26T06:11:30.457Z,101076
2017-05-26T06:12:30.512Z,101076
2017-05-26T06:13:31.267Z,101087
2017-05-26T06:14:30.924Z,101085
2017-05-26T06:15:30.602Z,101086
2017-05-26T06:16:31.838Z,101085
2017-05-26T06:17:31.232Z,101089
2017-05-26T06:18:30.688Z,101085
2017-05-26T06:19:30.761Z,101086
2017-05-26T06:20:31.641Z,101089
2017-05-26T06:21:30.805Z,101094
2017-05-26T06:22:30.782Z,101084
2017-05-26T06:23:30.934Z,101087
2017-05-26T06:24:31.456Z,101089
2017-05-26T06:25:31.551Z,101087
2017-05-26T06:26:31.830Z,101090
2017-05-26T06:27:31.651Z,101090
2017-05-26T06:28:31.794Z,101085
2017-05-26T06:29:31.898Z,101090
2017-05-26T06:30:31.929Z,101088
2017-05-26T06:31:32.141Z,101082
2017-05-26T06:32:32.242Z,101087
2017-05-26T06:33:31.518Z,101086
2017-05-26T06:34:31.668Z,101085
2017-05-26T06:35:32.138Z,101087
2017-05-26T06:36:33.585Z,101087
2017-05-26T06:37:32.209Z,101092
2017-05-26T06:38:32.036Z,101092
2017-05-26T06:39:31.829Z,101086
2017-05-26T06:40:31.843Z,101084
2017-05-26T06:41:32.386Z,101087
2017-05-26T06:42:32.405Z,101083
2017-05-26T06:43:31.876Z,101084
2017-05-26T06:44:32.217Z,101081
2017-05-26T06:45:31.946Z,101086
2017-05-26T06:46:31.972Z,101081
2017-05-26T06:47:32.562Z,101085
2017-05-26T06:48:32.045Z,101084
2017-05-26T06:49:32.738Z,101085
2017-05-26T06:50:33.016Z,101089
2017-05-26T06:51:32.810Z,101087
2017-05-26T06:52:32.350Z,101090
2017-05-26T06:53:32.924Z,101087
2017-05-26T06:54:32.342Z,101081
2017-05-26T06:55:32.426Z,101087
2017-05-26T06:56:34.610Z,101085
2017-05-26T06:57:32.542Z,101083
2017-05-26T06:58:32.565Z,101084
2017-05-26T06:59:33.113Z,101088
2017-05-26T07:00:33.142Z,101088
2017-05-26T07:01:32.695Z,101090
2017-05-26T07:02:33.526Z,101088
2017-05-26T07:03:32.735Z,101091
2017-05-26T07:04:33.282Z,101088
2017-05-26T07:05:32.845Z,101093
2017-05-26T07:06:32.835Z,101093
2017-05-26T07:07:33.498Z,101094
2017-05-26T07:08:33.862Z,101095
2017-05-26T07:09:33.097Z,101099
2017-05-26T07:10:33.646Z,101097
2017-05-26T07:11:33.673Z,101097
2017-05-26T07:12:33.241Z,101096
2017-05-26T07:13:33.228Z,101098
2017-05-26T07:14:34.087Z,101098
2017-05-26T07:15:33.817Z,101099
2017-05-26T07:16:33.404Z,101091
2017-05-26T07:17:33.886Z,101097
2017-05-26T07:18:33.431Z,101097
2017-05-26T07:19:34.068Z,101098
2017-05-26T07:20:34.310Z,101097
2017-05-26T07:21:34.597Z,101095
2017-05-26T07:22:34.216Z,101097
2017-05-26T07:23:34.925Z,101099
2017-05-26T07:24:34.949Z,101095
2017-05-26T07:25:39.868Z,101091
2017-05-26T07:26:35.597Z,101097
2017-05-26T07:27:36.510Z,101100
2017-05-26T07:28:35.859Z,101097
2017-05-26T07:29:34.064Z,101090
2017-05-26T07:30:34.228Z,101092
2017-05-26T07:31:35.455Z,101087
2017-05-26T07:32:36.943Z,101088
2017-05-26T07:33:34.857Z,101085
2017-05-26T07:34:34.843Z,101087
2017-05-26T07:35:34.356Z,101085
2017-05-26T07:36:34.908Z,101084
2017-05-26T07:37:35.586Z,101083
2017-05-26T07:38:35.471Z,101084
2017-05-26T07:39:36.466Z,101082
2017-05-26T07:40:36.427Z,101081
2017-05-26T07:41:35.337Z,101076
2017-05-26T07:42:37.912Z,101079
2017-05-26T07:43:36.625Z,101077
2017-05-26T07:44:36.920Z,101077
2017-05-26T07:45:35.522Z,101072
2017-05-26T07:46:34.979Z,101076
2017-05-26T07:47:36.133Z,101076
2017-05-26T07:48:36.103Z,101075
2017-05-26T07:49:35.097Z,101074
2017-05-26T07:50:36.014Z,101067
2017-05-26T07:51:35.759Z,101070
2017-05-26T07:52:35.323Z,101073
2017-05-26T07:53:36.033Z,101071
2017-05-26T07:54:35.891Z,101072
2017-05-26T07:55:35.961Z,101072
2017-05-26T07:56:35.887Z,101069
2017-05-26T07:57:36.133Z,101073
2017-05-26T07:58:35.651Z,101070
2017-05-26T07:59:36.158Z,101069
2017-05-26T08:00:36.217Z,101070
2017-05-26T08:01:36.226Z,101064
2017-05-26T08:02:36.546Z,101067
2017-05-26T08:03:36.320Z,101068
2017-05-26T08:04:35.781Z,101068
2017-05-26T08:05:35.793Z,101071
2017-05-26T08:06:35.935Z,101069
2017-05-26T08:07:36.535Z,101067
2017-05-26T08:08:36.385Z,101065
2017-05-26T08:09:36.656Z,101071
2017-05-26T08:10:36.635Z,101068
2017-05-26T08:11:36.675Z,101070
2017-05-26T08:12:36.788Z,101068
2017-05-26T08:13:38.381Z,101065
2017-05-26T08:14:36.512Z,101066
2017-05-26T08:15:36.939Z,101068
2017-05-26T08:16:37.449Z,101069
2017-05-26T08:17:37.586Z,101063
2017-05-26T08:18:36.974Z,101070
2017-05-26T08:19:36.533Z,101071
2017-05-26T08:20:36.971Z,101067
2017-05-26T08:21:37.247Z,101066
2017-05-26T08:22:37.878Z,101067
2017-05-26T08:23:37.532Z,101072
2017-05-26T08:24:37.968Z,101074
2017-05-26T08:25:37.434Z,101070
2017-05-26T08:26:37.817Z,101075
2017-05-26T08:27:37.088Z,101069
2017-05-26T08:28:37.599Z,101065
2017-05-26T08:29:37.144Z,101068
2017-05-26T08:30:37.164Z,101068
2017-05-26T08:31:37.178Z,101063
2017-05-26T08:32:38.015Z,101063
2017-05-26T08:33:38.455Z,101061
2017-05-26T08:34:37.793Z,101062
2017-05-26T08:35:37.262Z,101057
2017-05-26T08:36:37.769Z,101062
2017-05-26T08:37:37.905Z,101054
2017-05-26T08:38:38.192Z,101053
2017-05-26T08:39:37.492Z,101057
2017-05-26T08:40:37.525Z,101050
2017-05-26T08:41:37.611Z,101054
2017-05-26T08:42:38.165Z,101054
2017-05-26T08:43:38.222Z,101055
2017-05-26T08:44:38.486Z,101053
2017-05-26T08:45:37.732Z,101053
2017-05-26T08:46:38.296Z,101058
2017-05-26T08:47:37.850Z,101054
2017-05-26T08:48:37.812Z,101051
2017-05-26T08:49:37.919Z,101051
2017-05-26T08:50:38.894Z,101050
2017-05-26T08:51:39.793Z,101054
2017-05-26T08:52:38.600Z,101059
2017-05-26T08:53:38.141Z,101059
2017-05-26T08:54:39.898Z,101059
2017-05-26T08:55:38.722Z,101051
2017-05-26T08:56:39.056Z,101050
2017-05-26T08:57:38.786Z,101051
2017-05-26T08:58:38.812Z,101044
2017-05-26T08:59:38.856Z,101045
2017-05-26T09:00:38.957Z,101043
2017-05-26T09:01:39.005Z,101051
2017-05-26T09:02:38.756Z,101049
2017-05-26T09:03:39.032Z,101046
2017-05-26T09:04:39.111Z,101047
2017-05-26T09:05:39.078Z,101046
2017-05-26T09:06:39.876Z,101049
2017-05-26T09:07:38.681Z,101042
2017-05-26T09:08:39.098Z,101046
2017-05-26T09:09:38.801Z,101040
2017-05-26T09:10:39.447Z,101044
2017-05-26T09:11:39.474Z,101044
2017-05-26T09:12:40.715Z,101045
2017-05-26T09:13:39.126Z,101040
2017-05-26T09:14:39.402Z,101041
2017-05-26T09:15:39.698Z,101037
2017-05-26T09:16:39.858Z,101036
2017-05-26T09:17:39.242Z,101037
2017-05-26T09:18:40.363Z,101031
2017-05-26T09:19:39.402Z,101037
2017-05-26T09:20:39.451Z,101039
2017-05-26T09:21:39.922Z,101040
2017-05-26T09:23:38.163Z,101042
2017-05-26T09:24:39.332Z,101038
2017-05-26T09:25:38.283Z,101043
2017-05-26T09:26:38.307Z,101040
2017-05-26T09:27:38.395Z,101037
2017-05-26T09:28:38.473Z,101039
2017-05-26T09:29:39.663Z,101041
2017-05-26T09:30:39.090Z,101037
2017-05-26T09:31:39.141Z,101034
2017-05-26T09:32:39.373Z,101036
2017-05-26T09:33:38.707Z,101036
2017-05-26T09:34:39.354Z,101035
2017-05-26T09:35:39.413Z,101033
2017-05-26T09:36:39.700Z,101037
2017-05-26T09:37:38.898Z,101031
2017-05-26T09:38:39.485Z,101029
2017-05-26T09:39:38.987Z,101029
2017-05-26T09:40:39.588Z,101031
2017-05-26T09:41:39.656Z,101029
2017-05-26T09:42:40.902Z,101025
2017-05-26T09:43:39.794Z,101025
2017-05-26T09:44:39.241Z,101026
2017-05-26T09:45:39.916Z,101032
2017-05-26T09:46:39.407Z,101027
2017-05-26T09:47:39.978Z,101028
2017-05-26T09:48:40.918Z,101035
2017-05-26T09:49:40.092Z,101032
2017-05-26T09:50:39.550Z,101025
2017-05-26T09:51:39.530Z,101027
2017-05-26T09:52:41.405Z,101025
2017-05-26T09:53:40.289Z,101028
2017-05-26T09:54:40.305Z,101025
2017-05-26T09:55:39.782Z,101021
2017-05-26T09:56:40.367Z,101020
2017-05-26T09:57:41.735Z,101017
2017-05-26T09:58:40.898Z,101015
2017-05-26T09:59:41.135Z,101025
2017-05-26T10:00:40.112Z,101026
2017-05-26T10:01:40.751Z,101024
2017-05-26T10:02:40.265Z,101024
2017-05-26T10:03:40.264Z,101021
2017-05-26T10:04:40.858Z,101017
2017-05-26T10:05:40.915Z,101019
2017-05-26T10:06:41.436Z,101009
2017-05-26T10:07:40.432Z,101016
2017-05-26T10:08:40.428Z,101016
2017-05-26T10:09:40.471Z,101014
2017-05-26T10:10:40.587Z,101014
2017-05-26T10:11:41.124Z,101006
2017-05-26T10:12:40.754Z,101011
2017-05-26T10:13:40.793Z,101015
2017-05-26T10:14:40.847Z,101015
2017-05-26T10:15:40.857Z,101012
2017-05-26T10:16:40.870Z,101016
2017-05-26T10:17:40.864Z,101011
2017-05-26T10:18:40.872Z,101012
2017-05-26T10:19:41.438Z,101006
2017-05-26T10:20:41.523Z,101005
2017-05-26T10:21:41.585Z,101004
2017-05-26T10:22:41.557Z,100998
2017-05-26T10:23:41.090Z,101005
2017-05-26T10:24:41.651Z,101007
2017-05-26T10:25:41.830Z,101005
2017-05-26T10:26:41.835Z,100997
2017-05-26T10:27:41.888Z,101000
2017-05-26T10:28:41.361Z,100998
2017-05-26T10:29:41.961Z,101001
2017-05-26T10:30:42.186Z,101000
2017-05-26T10:31:42.339Z,101000
2017-05-26T10:32:42.041Z,101000
2017-05-26T10:33:41.576Z,100995
2017-05-26T10:34:41.625Z,100997
2017-05-26T10:35:42.238Z,101000
2017-05-26T10:36:43.060Z,100998
2017-05-26T10:37:42.439Z,100993
2017-05-26T10:38:42.497Z,100997
2017-05-26T10:39:43.134Z,100997
2017-05-26T10:40:42.526Z,101002
2017-05-26T10:41:42.662Z,101001
2017-05-26T10:42:42.612Z,101000
2017-05-26T10:43:42.182Z,100997
2017-05-26T10:44:42.771Z,100997
2017-05-26T10:45:42.335Z,101003
2017-05-26T10:46:42.863Z,100997
2017-05-26T10:47:43.570Z,100994
2017-05-26T10:48:42.389Z,100991
2017-05-26T10:49:42.961Z,100982
2017-05-26T10:50:42.524Z,100987
2017-05-26T10:51:43.815Z,100987
2017-05-26T10:52:43.169Z,100989
2017-05-26T10:53:42.978Z,100975
2017-05-26T10:54:42.667Z,100981
2017-05-26T10:55:43.888Z,100978
2017-05-26T10:56:42.817Z,100979
2017-05-26T10:57:43.349Z,100967
2017-05-26T10:58:43.434Z,100971
2017-05-26T10:59:42.979Z,100974
2017-05-26T11:00:43.501Z,100976
2017-05-26T11:01:43.040Z,100978
2017-05-26T11:02:43.076Z,100970
2017-05-26T11:03:43.193Z,100970
2017-05-26T11:04:43.285Z,100973
2017-05-26T11:05:43.866Z,100975
2017-05-26T11:06:45.217Z,100969
2017-05-26T11:07:43.977Z,100969
2017-05-26T11:08:43.417Z,100967
2017-05-26T11:09:44.029Z,100970
2017-05-26T11:10:44.147Z,100974
2017-05-26T11:11:44.171Z,100971
2017-05-26T11:12:43.657Z,100969
2017-05-26T11:13:44.213Z,100971
2017-05-26T11:14:44.257Z,100971
2017-05-26T11:15:44.068Z,100964
2017-05-26T11:16:43.893Z,100967
2017-05-26T11:17:44.469Z,100968
2017-05-26T11:18:44.626Z,100966
2017-05-26T11:19:44.534Z,100965
2017-05-26T11:20:44.010Z,100961
2017-05-26T11:21:44.609Z,100954
2017-05-26T11:22:44.174Z,100954
2017-05-26T11:23:44.786Z,100952
2017-05-26T11:24:44.298Z,100947
2017-05-26T11:25:44.894Z,100953
2017-05-26T11:26:44.887Z,100948
2017-05-26T11:27:44.967Z,100952
2017-05-26T11:28:44.400Z,100946
2017-05-26T11:29:44.463Z,100949
2017-05-26T11:30:45.039Z,100948
2017-05-26T11:31:44.569Z,100945
2017-05-26T11:32:44.502Z,100951
2017-05-26T11:33:45.090Z,100955
2017-05-26T11:34:45.879Z,100949
2017-05-26T11:35:44.640Z,100952
2017-05-26T11:36:45.846Z,100951
2017-05-26T11:37:45.552Z,100953
2017-05-26T11:38:45.905Z,100955
2017-05-26T11:39:45.923Z,100944
2017-05-26T11:40:44.780Z,100943
2017-05-26T11:41:44.780Z,100941
2017-05-26T11:42:45.465Z,100938
2017-05-26T11:43:45.685Z,100940
2017-05-26T11:44:44.993Z,100946
2017-05-26T11:45:44.996Z,100942
2017-05-26T11:46:45.590Z,100938
2017-05-26T11:47:45.148Z,100936
2017-05-26T11:48:45.222Z,100938
2017-05-26T11:49:46.680Z,100932
2017-05-26T11:50:45.384Z,100937
2017-05-26T11:51:45.968Z,100929
2017-05-26T11:52:46.609Z,100929
2017-05-26T11:53:45.542Z,100931
2017-05-26T11:54:46.194Z,100924
2017-05-26T11:55:46.545Z,100923
2017-05-26T11:56:45.776Z,100919
2017-05-26T11:57:47.153Z,100925
2017-05-26T11:58:46.445Z,100923
2017-05-26T11:59:46.498Z,100918
2017-05-26T12:00:46.008Z,100925
2017-05-26T12:01:46.898Z,100920
2017-05-26T12:02:46.091Z,100924
2017-05-26T12:03:46.660Z,100919
2017-05-26T12:04:46.185Z,100921
2017-05-26T12:05:46.212Z,100915
2017-05-26T12:06:46.762Z,100912
2017-05-26T12:07:46.476Z,100910
2017-05-26T12:08:47.000Z,100912
2017-05-26T12:09:47.536Z,100915
2017-05-26T12:10:46.893Z,100907
2017-05-26T12:11:46.381Z,100900
2017-05-26T12:12:46.385Z,100902
2017-05-26T12:13:47.282Z,100905
2017-05-26T12:14:48.245Z,100907
2017-05-26T12:15:46.616Z,100906
2017-05-26T12:16:46.586Z,100902
2017-05-26T12:17:47.167Z,100901
2017-05-26T12:18:47.933Z,100901
2017-05-26T12:19:47.725Z,100899
2017-05-26T12:20:48.020Z,100899
2017-05-26T12:21:47.851Z,100901
2017-05-26T12:22:48.649Z,100889
2017-05-26T12:24:48.528Z,100899
2017-05-26T12:25:48.442Z,100895
2017-05-26T12:26:48.652Z,100896
2017-05-26T12:27:47.131Z,100897
2017-05-26T12:28:47.116Z,100896
2017-05-26T12:29:47.698Z,100893
2017-05-26T12:30:47.247Z,100896